Time,TemperatureF,DewpointF,PressureIn,WindDirection,WindDirectionDegrees,WindSpeedMPH,WindSpeedGustMPH,Humidity,HourlyPrecipIn,Conditions,Clouds,dailyrainin,SoftwareType,DateUTC
2013-10-25 00:42:00,30.0,30.0,-100.00,SE,135,4.0,6.0,99,-99.99,,,-99.99,,2013-10-25 05:42:00,
2013-10-25 00:51:00,30.0,30.0,-100.00,SE,135,4.0,6.0,99,-99.99,,,-99.99,,2013-10-25 05:51:00,
2013-10-25 01:01:00,30.0,30.0,-100.00,SE,135,4.0,6.0,99,-99.99,,,-99.99,,2013-10-25 06:01:00,
2013-10-25 01:41:00,31.0,31.0,-100.00,South,180,3.0,6.0,99,-99.99,,,-99.99,,2013-10-25 06:41:00,
2013-10-25 01:51:00,31.0,31.0,-100.00,South,180,3.0,6.0,99,-99.99,,,-99.99,,2013-10-25 06:51:00,
2013-10-25 02:01:00,31.0,31.0,-100.00,South,180,3.0,6.0,99,-99.99,,,-99.99,,2013-10-25 07:01:00,
2013-10-25 02:41:00,31.0,31.0,-100.00,East,100,2.0,4.0,99,-99.99,,,-99.99,,2013-10-25 07:41:00,
2013-10-25 02:51:00,31.0,31.0,-100.00,East,100,2.0,4.0,99,-99.99,,,-99.99,,2013-10-25 07:51:00,
2013-10-25 03:01:00,31.0,31.0,-100.00,East,100,2.0,4.0,99,-99.99,,,-99.99,,2013-10-25 08:01:00,
2013-10-25 03:41:00,31.0,31.0,-100.00,SE,130,4.0,6.0,99,-99.99,,,-99.99,,2013-10-25 08:41:00,
2013-10-25 03:51:00,31.0,31.0,-100.00,SE,130,4.0,6.0,99,-99.99,,,-99.99,,2013-10-25 08:51:00,
2013-10-25 04:01:00,31.0,31.0,-100.00,SE,130,4.0,6.0,99,-99.99,,,-99.99,,2013-10-25 09:01:00,
2013-10-25 04:42:00,31.0,31.0,-100.00,ESE,120,4.0,5.0,99,-99.99,,,-99.99,,2013-10-25 09:42:00,
2013-10-25 04:52:00,31.0,31.0,-100.00,ESE,120,4.0,5.0,99,-99.99,,,-99.99,,2013-10-25 09:52:00,
2013-10-25 05:01:00,31.0,31.0,-100.00,ESE,120,4.0,5.0,99,-99.99,,,-99.99,,2013-10-25 10:01:00,
2013-10-25 05:02:00,32.0,32.0,-100.00,South,180,4.0,6.0,99,-99.99,,,-99.99,,2013-10-25 10:02:00,
2013-10-25 05:41:00,32.0,32.0,-100.00,South,180,4.0,6.0,99,-99.99,,,-99.99,,2013-10-25 10:41:00,
2013-10-25 05:52:00,32.0,32.0,-100.00,South,180,4.0,6.0,99,-99.99,,,-99.99,,2013-10-25 10:52:00,
2013-10-25 06:41:00,32.0,32.0,-100.00,SW,230,5.0,6.0,99,-99.99,,,-99.99,,2013-10-25 11:41:00,
2013-10-25 06:51:00,32.0,32.0,-100.00,SW,230,5.0,6.0,99,-99.99,,,-99.99,,2013-10-25 11:51:00,
2013-10-25 07:01:00,32.0,32.0,-100.00,SW,230,5.0,6.0,99,-99.99,,,-99.99,,2013-10-25 12:01:00,
2013-10-25 07:02:00,33.0,32.0,-100.00,SSW,200,4.0,7.0,99,-99.99,,,-99.99,,2013-10-25 12:02:00,
2013-10-25 07:41:00,33.0,32.0,-100.00,SSW,200,4.0,7.0,99,-99.99,,,-99.99,,2013-10-25 12:41:00,
2013-10-25 07:51:00,33.0,32.0,-100.00,SSW,200,4.0,7.0,99,-99.99,,,-99.99,,2013-10-25 12:51:00,
2013-10-25 08:02:00,33.0,32.0,-100.00,SSW,200,3.0,5.0,99,-99.99,,,-99.99,,2013-10-25 13:02:00,
2013-10-25 08:42:00,33.0,32.0,-100.00,SSW,200,3.0,5.0,99,-99.99,,,-99.99,,2013-10-25 13:42:00,
2013-10-25 08:52:00,33.0,32.0,-100.00,SSW,200,3.0,5.0,99,-99.99,,,-99.99,,2013-10-25 13:52:00,
2013-10-25 09:42:00,34.0,33.0,-100.00,SSW,205,4.0,6.0,99,-99.99,,,-99.99,,2013-10-25 14:42:00,
2013-10-25 09:52:00,34.0,33.0,-100.00,SSW,205,4.0,6.0,99,-99.99,,,-99.99,,2013-10-25 14:52:00,
2013-10-25 10:01:00,34.0,33.0,-100.00,SSW,205,4.0,6.0,99,-99.99,,,-99.99,,2013-10-25 15:01:00,
2013-10-25 10:02:00,40.0,37.0,-100.00,South,180,2.0,4.0,89,-99.99,,,-99.99,,2013-10-25 15:02:00,
2013-10-25 10:43:00,40.0,37.0,-100.00,South,180,2.0,4.0,89,-99.99,,,-99.99,,2013-10-25 15:43:00,
2013-10-25 10:53:00,40.0,37.0,-100.00,South,180,2.0,4.0,89,-99.99,,,-99.99,,2013-10-25 15:53:00,
2013-10-25 12:02:00,54.0,42.0,-100.00,West,275,8.0,9.0,65,-99.99,,,-99.99,,2013-10-25 17:02:00,
2013-10-25 12:43:00,54.0,42.0,-100.00,West,275,8.0,9.0,65,-99.99,,,-99.99,,2013-10-25 17:43:00,
2013-10-25 12:52:00,54.0,42.0,-100.00,West,275,8.0,9.0,65,-99.99,,,-99.99,,2013-10-25 17:52:00,
2013-10-25 13:02:00,58.0,43.0,-100.00,WNW,290,14.0,19.0,57,-99.99,,,-99.99,,2013-10-25 18:02:00,
2013-10-25 13:42:00,58.0,43.0,-100.00,WNW,290,14.0,19.0,57,-99.99,,,-99.99,,2013-10-25 18:42:00,
2013-10-25 13:52:00,58.0,43.0,-100.00,WNW,290,14.0,19.0,57,-99.99,,,-99.99,,2013-10-25 18:52:00,
2013-10-25 14:02:00,60.0,42.0,-100.00,NW,325,10.0,15.0,52,-99.99,,,-99.99,,2013-10-25 19:02:00,
2013-10-25 14:42:00,60.0,42.0,-100.00,NW,325,10.0,15.0,52,-99.99,,,-99.99,,2013-10-25 19:42:00,
2013-10-25 14:52:00,60.0,42.0,-100.00,NW,325,10.0,15.0,52,-99.99,,,-99.99,,2013-10-25 19:52:00,
2013-10-25 15:02:00,61.0,41.0,-100.00,WNW,295,7.0,11.0,48,-99.99,,,-99.99,,2013-10-25 20:02:00,
2013-10-25 15:42:00,61.0,41.0,-100.00,WNW,295,7.0,11.0,48,-99.99,,,-99.99,,2013-10-25 20:42:00,
2013-10-25 15:52:00,61.0,41.0,-100.00,WNW,295,7.0,11.0,48,-99.99,,,-99.99,,2013-10-25 20:52:00,
2013-10-25 16:02:00,62.0,38.0,-100.00,WNW,295,9.0,14.0,40,-99.99,,,-99.99,,2013-10-25 21:02:00,
2013-10-25 16:43:00,62.0,38.0,-100.00,WNW,295,9.0,14.0,40,-99.99,,,-99.99,,2013-10-25 21:43:00,
2013-10-25 16:54:00,62.0,38.0,-100.00,WNW,295,9.0,14.0,40,-99.99,,,-99.99,,2013-10-25 21:54:00,
2013-10-25 17:02:00,61.0,35.0,-100.00,WNW,295,11.0,17.0,38,-99.99,,,-99.99,,2013-10-25 22:02:00,
2013-10-25 17:42:00,61.0,35.0,-100.00,WNW,295,11.0,17.0,38,-99.99,,,-99.99,,2013-10-25 22:42:00,
2013-10-25 17:53:00,61.0,35.0,-100.00,WNW,295,11.0,17.0,38,-99.99,,,-99.99,,2013-10-25 22:53:00,
2013-10-25 18:02:00,59.0,34.0,-100.00,NW,305,12.0,16.0,38,-99.99,,,-99.99,,2013-10-25 23:02:00,
2013-10-25 18:42:00,59.0,34.0,-100.00,NW,305,12.0,16.0,38,-99.99,,,-99.99,,2013-10-25 23:42:00,
2013-10-25 18:52:00,59.0,34.0,-100.00,NW,305,12.0,16.0,38,-99.99,,,-99.99,,2013-10-25 23:52:00,
2013-10-25 19:42:00,56.0,34.0,-100.00,NW,315,11.0,16.0,43,-99.99,,,-99.99,,2013-10-26 00:42:00,
2013-10-25 19:52:00,56.0,34.0,-100.00,NW,315,11.0,16.0,43,-99.99,,,-99.99,,2013-10-26 00:52:00,
2013-10-25 20:01:00,56.0,34.0,-100.00,NW,315,11.0,16.0,43,-99.99,,,-99.99,,2013-10-26 01:01:00,
2013-10-25 20:02:00,52.0,30.0,-100.00,NNW,335,5.0,9.0,43,-99.99,,,-99.99,,2013-10-26 01:02:00,
2013-10-25 20:42:00,52.0,30.0,-100.00,NNW,335,5.0,9.0,43,-99.99,,,-99.99,,2013-10-26 01:42:00,
2013-10-25 20:52:00,52.0,30.0,-100.00,NNW,335,5.0,9.0,43,-99.99,,,-99.99,,2013-10-26 01:52:00,
2013-10-25 22:02:00,45.0,27.0,-100.00,NNW,330,4.0,7.0,50,-99.99,,,-99.99,,2013-10-26 03:02:00,
2013-10-25 22:45:00,45.0,27.0,-100.00,NNW,330,4.0,7.0,50,-99.99,,,-99.99,,2013-10-26 03:45:00,
2013-10-25 22:54:00,45.0,27.0,-100.00,NNW,330,4.0,7.0,50,-99.99,,,-99.99,,2013-10-26 03:54:00,
2013-10-25 23:02:00,43.0,29.0,-100.00,North,350,10.0,15.0,57,-99.99,,,-99.99,,2013-10-26 04:02:00,
2013-10-25 23:44:00,43.0,29.0,-100.00,North,350,10.0,15.0,57,-99.99,,,-99.99,,2013-10-26 04:44:00,
2013-10-25 23:54:00,43.0,29.0,-100.00,North,350,10.0,15.0,57,-99.99,,,-99.99,,2013-10-26 04:54:00,